Time;durP1;ratioP1;P1;durP2;ratioP2;P2;SDS_P1;SDS_P2;PMS_P1;PMS_P2;Temp;Humidity;BMP_temperature;BMP_pressure;BME280_temperature;BME280_humidity;BME280_pressure;Samples;Min_cycle;Max_cycle;Signal;HPM_P1;HPM_P2
2023/09/25 00:02:23;;;;;;;;;;;18.80;93.30;;;;;;5074846;28;19909;-55
2023/09/25 00:04:49;;;;;;;;;;;18.80;93.30;;;;;;5074885;28;20333;-55
2023/09/25 00:07:14;;;;;;;;;;;18.80;93.30;;;;;;5073992;28;19919;-57
2023/09/25 00:09:40;;;;;;;;;;;18.80;93.30;;;;;;5074102;28;19921;-53
2023/09/25 00:12:05;;;;;;;;;;;18.80;93.30;;;;;;5074655;28;19912;-56
2023/09/25 00:14:31;;;;;;;;;;;18.80;93.30;;;;;;5074410;28;19912;-57
2023/09/25 00:16:56;;;;;;;;;;;18.80;93.30;;;;;;5073525;28;19920;-57
2023/09/25 00:19:22;;;;;;;;;;;18.70;93.30;;;;;;5073477;28;20382;-53
2023/09/25 00:21:48;;;;;;;;;;;18.80;93.30;;;;;;5074840;28;19913;-56
2023/09/25 00:24:13;;;;;;;;;;;18.70;93.30;;;;;;5074494;28;19908;-55
2023/09/25 00:26:39;;;;;;;;;;;18.70;93.20;;;;;;5074456;28;19920;-57
2023/09/25 00:29:04;;;;;;;;;;;18.80;93.20;;;;;;5072847;28;19982;-52
2023/09/25 00:31:31;;;;;;;;;;;18.70;93.20;;;;;;5072832;28;20279;-56
2023/09/25 00:33:56;;;;;;;;;;;18.70;93.20;;;;;;5074421;28;20312;-55
2023/09/25 00:36:22;;;;;;;;;;;18.70;93.20;;;;;;5074325;28;19909;-54
2023/09/25 00:38:47;;;;;;;;;;;18.80;93.20;;;;;;5073329;28;20363;-57
2023/09/25 00:41:13;;;;;;;;;;;18.70;93.20;;;;;;5074437;28;20007;-54
2023/09/25 00:43:38;;;;;;;;;;;18.80;93.20;;;;;;5073978;28;20381;-55
2023/09/25 00:46:04;;;;;;;;;;;18.70;93.20;;;;;;5074013;28;19908;-56
2023/09/25 00:48:30;;;;;;;;;;;18.80;93.20;;;;;;5072993;28;20343;-55
2023/09/25 00:51:01;;;;;;;;;;;18.80;93.20;;;;;;5073898;28;19924;-56
2023/09/25 00:53:29;;;;;;;;;;;18.70;93.20;;;;;;5074114;28;20259;-56
2023/09/25 00:55:55;;;;;;;;;;;18.70;93.10;;;;;;5073853;28;20275;-56
2023/09/25 00:58:20;;;;;;;;;;;18.80;93.20;;;;;;5073323;28;19920;-58
2023/09/25 01:00:46;;;;;;;;;;;18.80;93.20;;;;;;5074134;28;19908;-57
2023/09/25 01:03:12;;;;;;;;;;;18.70;93.10;;;;;;5073768;28;19912;-57
2023/09/25 01:05:39;;;;;;;;;;;18.70;93.20;;;;;;5073709;28;19912;-55
2023/09/25 01:08:05;;;;;;;;;;;18.70;93.20;;;;;;5074041;28;19962;-56
2023/09/25 01:10:31;;;;;;;;;;;18.70;93.10;;;;;;5072431;28;19913;-57
2023/09/25 01:12:57;;;;;;;;;;;18.70;93.10;;;;;;5072325;28;19995;-56
2023/09/25 01:15:23;;;;;;;;;;;18.70;93.10;;;;;;5072587;28;20016;-56
2023/09/25 01:17:48;;;;;;;;;;;18.70;93.10;;;;;;5073969;28;19912;-58
2023/09/25 01:20:17;;;;;;;;;;;18.70;93.10;;;;;;5073448;28;20330;-55
2023/09/25 01:22:44;;;;;;;;;;;18.70;93.10;;;;;;5055954;28;19909;-55
2023/09/25 01:25:12;;;;;;;;;;;18.70;93.10;;;;;;5073905;28;19914;-57
2023/09/25 01:27:39;;;;;;;;;;;18.70;93.10;;;;;;5073480;28;20267;-56
2023/09/25 01:30:06;;;;;;;;;;;18.70;93.10;;;;;;5072345;28;19919;-57
2023/09/25 01:32:31;;;;;;;;;;;18.70;93.10;;;;;;5073393;28;19913;-55
2023/09/25 01:34:57;;;;;;;;;;;18.70;93.10;;;;;;5055726;28;19912;-56
2023/09/25 01:37:22;;;;;;;;;;;18.70;93.10;;;;;;5073781;28;20368;-55
2023/09/25 01:39:48;;;;;;;;;;;18.70;93.10;;;;;;5074558;28;19921;-56
2023/09/25 01:42:14;;;;;;;;;;;18.70;93.10;;;;;;5077683;28;19909;-57
2023/09/25 01:44:40;;;;;;;;;;;18.70;93.10;;;;;;5077634;28;19948;-56
2023/09/25 01:47:05;;;;;;;;;;;18.70;93.10;;;;;;5077560;28;19956;-56
2023/09/25 01:49:32;;;;;;;;;;;18.70;93.10;;;;;;5076947;28;19958;-55
2023/09/25 01:51:58;;;;;;;;;;;18.60;93.10;;;;;;5076999;28;19923;-56
2023/09/25 01:54:23;;;;;;;;;;;18.70;93.10;;;;;;5077636;28;19913;-57
2023/09/25 01:56:49;;;;;;;;;;;18.70;93.10;;;;;;5077339;28;20000;-56
2023/09/25 01:59:14;;;;;;;;;;;18.70;93.10;;;;;;5077326;28;19999;-57
2023/09/25 02:01:40;;;;;;;;;;;18.70;93.10;;;;;;5076423;28;19916;-53
2023/09/25 02:04:07;;;;;;;;;;;18.70;93.10;;;;;;5076962;28;19909;-55
2023/09/25 02:06:33;;;;;;;;;;;18.70;93.10;;;;;;5076814;28;20406;-57
2023/09/25 02:08:59;;;;;;;;;;;18.60;93.10;;;;;;5076881;28;19916;-56
2023/09/25 02:11:24;;;;;;;;;;;18.60;93.10;;;;;;5075859;28;19917;-54
2023/09/25 02:13:50;;;;;;;;;;;18.70;93.10;;;;;;5076759;28;19958;-55
2023/09/25 02:16:15;;;;;;;;;;;18.60;93.10;;;;;;5077007;28;19908;-56
2023/09/25 02:18:41;;;;;;;;;;;18.60;93.10;;;;;;5076985;28;20062;-56
2023/09/25 02:21:06;;;;;;;;;;;18.60;93.10;;;;;;5076237;28;20385;-57
2023/09/25 02:23:32;;;;;;;;;;;18.60;93.30;;;;;;5076894;28;19942;-55
2023/09/25 02:25:58;;;;;;;;;;;18.60;93.10;;;;;;5076848;28;19919;-56
2023/09/25 02:28:23;;;;;;;;;;;18.60;93.10;;;;;;5076813;28;20002;-55
2023/09/25 02:30:49;;;;;;;;;;;18.60;93.10;;;;;;5057944;28;19959;-56
2023/09/25 02:33:15;;;;;;;;;;;18.60;93.10;;;;;;5076463;28;19913;-57
2023/09/25 02:35:40;;;;;;;;;;;18.60;93.10;;;;;;5076675;28;19969;-56
2023/09/25 02:38:06;;;;;;;;;;;18.60;93.10;;;;;;5076651;28;19999;-57
2023/09/25 02:40:32;;;;;;;;;;;18.60;93.10;;;;;;5075846;28;20317;-57
2023/09/25 02:42:57;;;;;;;;;;;18.60;93.10;;;;;;5076255;28;20405;-57
2023/09/25 02:45:23;;;;;;;;;;;18.60;93.10;;;;;;5058613;28;20339;-57
2023/09/25 02:47:48;;;;;;;;;;;18.60;93.10;;;;;;5076486;28;19931;-57
2023/09/25 02:50:15;;;;;;;;;;;18.60;93.10;;;;;;5075725;28;19920;-54
2023/09/25 02:52:44;;;;;;;;;;;18.60;93.10;;;;;;5075208;28;19917;-57
2023/09/25 02:55:10;;;;;;;;;;;18.60;93.10;;;;;;5076660;28;19999;-57
2023/09/25 02:57:35;;;;;;;;;;;18.60;93.10;;;;;;5076311;28;19967;-57
2023/09/25 03:00:01;;;;;;;;;;;18.60;93.10;;;;;;5074962;28;20355;-57
2023/09/25 03:02:27;;;;;;;;;;;18.60;93.10;;;;;;5075539;28;19912;-55
2023/09/25 03:04:53;;;;;;;;;;;18.60;93.10;;;;;;5076162;28;19908;-56
2023/09/25 03:07:19;;;;;;;;;;;18.60;93.10;;;;;;5076141;28;19908;-57
2023/09/25 03:09:44;;;;;;;;;;;18.60;93.10;;;;;;5075836;28;20000;-57
2023/09/25 03:12:10;;;;;;;;;;;18.50;93.10;;;;;;5075008;28;19956;-57
2023/09/25 03:14:36;;;;;;;;;;;18.50;93.10;;;;;;5075691;28;19913;-57
2023/09/25 03:17:01;;;;;;;;;;;18.50;93.10;;;;;;5075907;28;19909;-57
2023/09/25 03:19:29;;;;;;;;;;;18.50;93.10;;;;;;5075875;28;20350;-56
2023/09/25 03:21:54;;;;;;;;;;;18.50;93.10;;;;;;5075405;28;20306;-56
2023/09/25 03:24:20;;;;;;;;;;;18.60;93.10;;;;;;5075536;28;19911;-55
2023/09/25 03:26:45;;;;;;;;;;;18.60;93.10;;;;;;5075441;28;19916;-56
2023/09/25 03:29:11;;;;;;;;;;;18.50;93.10;;;;;;5075584;28;19912;-57
2023/09/25 03:31:36;;;;;;;;;;;18.50;93.10;;;;;;5075279;28;19969;-55
2023/09/25 03:34:02;;;;;;;;;;;18.50;93.10;;;;;;5075549;28;19913;-56
2023/09/25 03:36:27;;;;;;;;;;;18.50;93.10;;;;;;5075495;28;19951;-56
2023/09/25 03:38:53;;;;;;;;;;;18.50;93.10;;;;;;5075625;28;19909;-55
2023/09/25 03:41:18;;;;;;;;;;;18.50;93.10;;;;;;5057030;28;20436;-57
2023/09/25 03:43:44;;;;;;;;;;;18.50;93.10;;;;;;5075417;28;19908;-57
2023/09/25 03:46:09;;;;;;;;;;;18.50;93.10;;;;;;5075325;28;19909;-54
2023/09/25 03:48:35;;;;;;;;;;;18.50;93.10;;;;;;5057139;28;19920;-56
2023/09/25 03:51:01;;;;;;;;;;;18.50;93.10;;;;;;5056550;28;19916;-57
2023/09/25 03:53:26;;;;;;;;;;;18.50;93.10;;;;;;5074976;28;19935;-55
2023/09/25 03:55:52;;;;;;;;;;;18.50;93.10;;;;;;5074745;28;19915;-56
2023/09/25 03:58:17;;;;;;;;;;;18.50;93.10;;;;;;5075076;28;19913;-55
2023/09/25 04:00:43;;;;;;;;;;;18.50;93.10;;;;;;5074662;28;19913;-57
2023/09/25 04:03:08;;;;;;;;;;;18.50;93.10;;;;;;5074561;28;19909;-56
2023/09/25 04:05:34;;;;;;;;;;;18.50;93.10;;;;;;5074612;28;20053;-57
2023/09/25 04:08:00;;;;;;;;;;;18.50;93.10;;;;;;5074451;28;19909;-57
2023/09/25 04:10:27;;;;;;;;;;;18.50;93.20;;;;;;5073775;28;19912;-54
2023/09/25 04:12:53;;;;;;;;;;;18.50;93.20;;;;;;5074587;28;19912;-54
2023/09/25 04:15:22;;;;;;;;;;;18.50;93.10;;;;;;5074269;28;19916;-54
2023/09/25 04:17:50;;;;;;;;;;;18.50;93.10;;;;;;5074421;28;19966;-55
2023/09/25 04:20:17;;;;;;;;;;;18.50;93.10;;;;;;5074289;28;20359;-56
2023/09/25 04:22:45;;;;;;;;;;;18.50;93.10;;;;;;5073730;28;19913;-55
2023/09/25 04:25:20;;;;;;;;;;;18.50;93.10;;;;;;5074851;28;19909;-56
2023/09/25 04:27:47;;;;;;;;;;;18.40;93.10;;;;;;5074695;28;19908;-57
2023/09/25 04:30:14;;;;;;;;;;;18.40;93.10;;;;;;5074055;28;19916;-56
2023/09/25 04:32:43;;;;;;;;;;;18.40;93.10;;;;;;5074271;28;19912;-57
2023/09/25 04:35:09;;;;;;;;;;;18.50;93.10;;;;;;5074716;28;20263;-56
2023/09/25 04:37:36;;;;;;;;;;;18.50;93.10;;;;;;5074245;28;20319;-57
2023/09/25 04:40:07;;;;;;;;;;;18.40;93.10;;;;;;5073720;28;19943;-55
2023/09/25 04:42:32;;;;;;;;;;;18.40;93.10;;;;;;5074319;28;19909;-56
2023/09/25 04:44:58;;;;;;;;;;;18.40;93.10;;;;;;5074154;28;19917;-56
2023/09/25 04:47:25;;;;;;;;;;;18.40;93.10;;;;;;5073938;28;19908;-56
2023/09/25 04:49:50;;;;;;;;;;;18.40;93.10;;;;;;5073358;28;19920;-57
2023/09/25 04:52:16;;;;;;;;;;;18.40;93.10;;;;;;5073902;28;19924;-55
2023/09/25 04:54:41;;;;;;;;;;;18.40;93.20;;;;;;5073946;28;20286;-57
2023/09/25 04:57:07;;;;;;;;;;;18.40;93.10;;;;;;5074099;28;19962;-54
2023/09/25 04:59:32;;;;;;;;;;;18.40;93.20;;;;;;5073318;28;20370;-56
2023/09/25 05:01:58;;;;;;;;;;;18.40;93.20;;;;;;5073718;28;19947;-58
2023/09/25 05:04:23;;;;;;;;;;;18.40;93.20;;;;;;5073804;28;19909;-58
2023/09/25 05:06:48;;;;;;;;;;;18.40;93.20;;;;;;5073841;28;20017;-53
2023/09/25 05:09:15;;;;;;;;;;;18.40;93.20;;;;;;5073535;28;19909;-56
2023/09/25 05:11:40;;;;;;;;;;;18.40;93.20;;;;;;5077015;28;19967;-57
2023/09/25 05:14:06;;;;;;;;;;;18.40;93.20;;;;;;5073307;28;19958;-56
2023/09/25 05:16:31;;;;;;;;;;;18.40;93.40;;;;;;5073653;28;20286;-56
2023/09/25 05:18:58;;;;;;;;;;;18.40;93.20;;;;;;5074153;28;19908;-56
2023/09/25 05:21:23;;;;;;;;;;;18.40;93.20;;;;;;5073028;28;20003;-56
2023/09/25 05:23:49;;;;;;;;;;;18.40;93.20;;;;;;5075393;28;20011;-57
2023/09/25 05:26:14;;;;;;;;;;;18.40;93.20;;;;;;5073693;28;19944;-57
2023/09/25 05:28:40;;;;;;;;;;;18.40;93.20;;;;;;5073678;28;20353;-57
2023/09/25 05:31:05;;;;;;;;;;;18.40;93.20;;;;;;5074230;28;19942;-55
2023/09/25 05:33:31;;;;;;;;;;;18.40;93.20;;;;;;5072225;28;20255;-55
2023/09/25 05:35:56;;;;;;;;;;;18.40;93.20;;;;;;5073369;28;19909;-57
2023/09/25 05:38:21;;;;;;;;;;;18.30;93.20;;;;;;5073320;28;20236;-56
2023/09/25 05:40:47;;;;;;;;;;;18.30;93.20;;;;;;5073443;28;20003;-54
2023/09/25 05:43:12;;;;;;;;;;;18.30;93.20;;;;;;5081859;28;20281;-57
2023/09/25 05:45:38;;;;;;;;;;;18.30;93.20;;;;;;5082242;28;19922;-57
2023/09/25 05:48:04;;;;;;;;;;;18.30;93.20;;;;;;5093341;28;19915;-55
2023/09/25 05:50:33;;;;;;;;;;;18.30;93.30;;;;;;5108760;28;19970;-54
2023/09/25 05:52:59;;;;;;;;;;;18.30;93.30;;;;;;5081221;28;19999;-56
2023/09/25 05:55:25;;;;;;;;;;;18.30;93.30;;;;;;5085768;28;20002;-57
2023/09/25 05:57:51;;;;;;;;;;;18.30;93.30;;;;;;5071586;28;19920;-57
2023/09/25 06:00:18;;;;;;;;;;;18.30;93.30;;;;;;5070948;28;19912;-57
2023/09/25 06:02:44;;;;;;;;;;;18.30;93.30;;;;;;5081937;28;19912;-57
2023/09/25 06:05:12;;;;;;;;;;;18.30;93.30;;;;;;5088748;28;19912;-55
2023/09/25 06:07:38;;;;;;;;;;;18.30;93.30;;;;;;5084742;28;19935;-56
2023/09/25 06:10:08;;;;;;;;;;;18.20;93.30;;;;;;5070656;28;19912;-56
2023/09/25 06:12:33;;;;;;;;;;;18.30;93.40;;;;;;5072921;28;19966;-56
2023/09/25 06:14:59;;;;;;;;;;;18.20;93.30;;;;;;5072580;28;19913;-55
2023/09/25 06:17:26;;;;;;;;;;;18.30;93.40;;;;;;5072688;28;19908;-56
2023/09/25 06:19:53;;;;;;;;;;;18.30;93.40;;;;;;5074924;28;20381;-52
2023/09/25 06:22:20;;;;;;;;;;;18.20;93.40;;;;;;5064603;28;20397;-56
2023/09/25 06:24:45;;;;;;;;;;;18.20;93.40;;;;;;5064851;28;19919;-56
2023/09/25 06:27:10;;;;;;;;;;;18.20;93.40;;;;;;5073213;28;19913;-53
2023/09/25 06:29:36;;;;;;;;;;;18.20;93.40;;;;;;5076646;28;19979;-56
2023/09/25 06:32:02;;;;;;;;;;;18.20;93.40;;;;;;5056187;28;19924;-56
2023/09/25 06:34:27;;;;;;;;;;;18.20;93.40;;;;;;5074160;28;20267;-57
2023/09/25 06:36:53;;;;;;;;;;;18.20;93.40;;;;;;5076041;28;19987;-56
2023/09/25 06:39:19;;;;;;;;;;;18.20;93.40;;;;;;5073010;28;19951;-52
2023/09/25 06:41:44;;;;;;;;;;;18.20;93.40;;;;;;5074826;28;19939;-56
2023/09/25 06:44:12;;;;;;;;;;;18.20;93.50;;;;;;5076276;28;20275;-55
2023/09/25 06:46:37;;;;;;;;;;;18.20;93.50;;;;;;5075985;28;20381;-56
2023/09/25 06:49:03;;;;;;;;;;;18.20;93.50;;;;;;5076185;28;19956;-52
2023/09/25 06:51:29;;;;;;;;;;;18.20;93.50;;;;;;5074893;28;19924;-55
2023/09/25 06:53:55;;;;;;;;;;;18.20;93.50;;;;;;5080630;28;20031;-55
2023/09/25 06:56:20;;;;;;;;;;;18.20;93.50;;;;;;5074569;28;20414;-53
2023/09/25 06:58:45;;;;;;;;;;;18.10;93.50;;;;;;5075822;28;19916;-53
2023/09/25 07:01:11;;;;;;;;;;;18.20;93.50;;;;;;5075705;28;19962;-56
2023/09/25 07:03:37;;;;;;;;;;;18.10;93.50;;;;;;5080595;28;20386;-55
2023/09/25 07:06:02;;;;;;;;;;;18.10;93.50;;;;;;5093731;28;19916;-52
2023/09/25 07:08:28;;;;;;;;;;;18.20;93.60;;;;;;5086760;28;19916;-54
2023/09/25 07:10:53;;;;;;;;;;;18.10;93.60;;;;;;5058104;28;19932;-56
2023/09/25 07:13:19;;;;;;;;;;;18.10;93.60;;;;;;5087568;28;19924;-54
2023/09/25 07:15:45;;;;;;;;;;;18.10;93.70;;;;;;5085609;28;20283;-56
2023/09/25 07:18:11;;;;;;;;;;;18.10;93.70;;;;;;5073846;28;19920;-56
2023/09/25 07:20:36;;;;;;;;;;;18.10;93.70;;;;;;5076887;28;19920;-56
2023/09/25 07:23:02;;;;;;;;;;;18.10;93.70;;;;;;5089856;28;19912;-56
2023/09/25 07:25:28;;;;;;;;;;;18.10;93.70;;;;;;5094613;28;20137;-56
2023/09/25 07:27:54;;;;;;;;;;;18.10;93.70;;;;;;5088194;28;20310;-57
2023/09/25 07:30:20;;;;;;;;;;;18.10;93.80;;;;;;5092745;28;19912;-56
2023/09/25 07:32:46;;;;;;;;;;;18.10;93.80;;;;;;5089341;28;19916;-47
2023/09/25 07:35:15;;;;;;;;;;;18.10;93.80;;;;;;5074981;28;19954;-53
2023/09/25 07:37:41;;;;;;;;;;;18.10;93.90;;;;;;5088577;28;19927;-48
2023/09/25 07:40:10;;;;;;;;;;;18.10;94.00;;;;;;5076686;28;19974;-48
2023/09/25 07:42:35;;;;;;;;;;;18.10;94.10;;;;;;5061316;28;20354;-51
2023/09/25 07:45:05;;;;;;;;;;;18.10;94.10;;;;;;5089894;28;19916;-50
2023/09/25 07:47:31;;;;;;;;;;;18.10;94.20;;;;;;5081103;28;20015;-54
2023/09/25 07:49:57;;;;;;;;;;;18.10;94.20;;;;;;5058706;28;19955;-53
2023/09/25 07:52:24;;;;;;;;;;;18.10;94.20;;;;;;5081978;28;19967;-53
2023/09/25 07:54:50;;;;;;;;;;;18.10;94.30;;;;;;5085563;28;19916;-53
2023/09/25 07:57:16;;;;;;;;;;;18.10;94.30;;;;;;5074138;28;19913;-48
2023/09/25 07:59:42;;;;;;;;;;;18.10;94.30;;;;;;5078492;28;20003;-52
2023/09/25 08:02:07;;;;;;;;;;;18.10;94.40;;;;;;5086399;28;19912;-50
2023/09/25 08:04:34;;;;;;;;;;;18.10;94.40;;;;;;5071331;28;20359;-51
2023/09/25 08:07:00;;;;;;;;;;;18.10;94.40;;;;;;5092270;28;20282;-47
2023/09/25 08:09:26;;;;;;;;;;;18.10;94.40;;;;;;5089372;28;19930;-46
2023/09/25 08:11:52;;;;;;;;;;;18.10;94.40;;;;;;5085508;28;19916;-53
2023/09/25 08:14:18;;;;;;;;;;;18.10;94.50;;;;;;5079950;28;20117;-52
2023/09/25 08:16:44;;;;;;;;;;;18.10;94.50;;;;;;5074383;28;19915;-54
2023/09/25 08:19:09;;;;;;;;;;;18.10;94.50;;;;;;5074407;28;19908;-46
2023/09/25 08:21:35;;;;;;;;;;;18.10;94.50;;;;;;5070976;28;20382;-55
2023/09/25 08:24:00;;;;;;;;;;;18.10;94.50;;;;;;5080058;28;19916;-58
2023/09/25 08:26:26;;;;;;;;;;;18.10;94.50;;;;;;5075519;28;20367;-50
2023/09/25 08:28:51;;;;;;;;;;;18.10;94.50;;;;;;5079419;28;19954;-49
2023/09/25 08:31:17;;;;;;;;;;;18.10;94.80;;;;;;5076007;28;20346;-52
2023/09/25 08:33:43;;;;;;;;;;;18.10;94.50;;;;;;5061322;28;19916;-59
2023/09/25 08:36:11;;;;;;;;;;;18.10;94.60;;;;;;5056175;28;20364;-49
2023/09/25 08:38:37;;;;;;;;;;;18.10;94.60;;;;;;5074353;28;19908;-52
2023/09/25 08:41:02;;;;;;;;;;;18.10;94.60;;;;;;5081449;28;19919;-48
2023/09/25 08:43:28;;;;;;;;;;;18.10;94.60;;;;;;5090131;28;19920;-49
2023/09/25 08:45:55;;;;;;;;;;;18.10;94.60;;;;;;5082526;28;19919;-51
2023/09/25 08:48:20;;;;;;;;;;;18.10;94.50;;;;;;5093534;28;19908;-51
2023/09/25 08:50:46;;;;;;;;;;;18.10;94.50;;;;;;5093799;28;20320;-51
2023/09/25 08:53:12;;;;;;;;;;;18.10;94.80;;;;;;5094230;28;19916;-51
2023/09/25 08:55:37;;;;;;;;;;;18.10;94.60;;;;;;5091375;28;19908;-49
2023/09/25 08:58:07;;;;;;;;;;;18.10;94.60;;;;;;5073951;28;19908;-57
2023/09/25 09:00:33;;;;;;;;;;;18.10;94.60;;;;;;5085162;28;20274;-52
2023/09/25 09:02:59;;;;;;;;;;;18.10;94.60;;;;;;5075793;28;20413;-57
2023/09/25 09:05:24;;;;;;;;;;;18.10;94.60;;;;;;5073394;28;19909;-52
2023/09/25 09:07:59;;;;;;;;;;;18.10;94.60;;;;;;5073570;28;19912;-47
2023/09/25 09:10:32;;;;;;;;;;;18.20;94.90;;;;;;5068949;28;19924;-48
2023/09/25 09:12:58;;;;;;;;;;;18.20;94.70;;;;;;5088442;28;19924;-52
2023/09/25 09:15:28;;;;;;;;;;;18.10;94.60;;;;;;5082959;28;20370;-50
2023/09/25 09:17:54;;;;;;;;;;;18.10;94.70;;;;;;5068242;28;19999;-51
2023/09/25 09:20:21;;;;;;;;;;;18.10;94.60;;;;;;5073754;28;19912;-47
2023/09/25 09:22:51;;;;;;;;;;;18.10;94.50;;;;;;5073540;28;19918;-49
2023/09/25 09:25:17;;;;;;;;;;;18.10;94.60;;;;;;5073359;28;19908;-50
2023/09/25 09:27:46;;;;;;;;;;;18.10;94.60;;;;;;5073149;28;19909;-52
2023/09/25 09:30:21;;;;;;;;;;;18.10;94.60;;;;;;5086476;28;19950;-52
2023/09/25 09:32:50;;;;;;;;;;;18.10;94.60;;;;;;5084835;28;19922;-48
2023/09/25 09:35:22;;;;;;;;;;;18.10;94.60;;;;;;5070864;28;19923;-50
2023/09/25 09:37:54;;;;;;;;;;;18.10;94.60;;;;;;5085332;28;19920;-46
2023/09/25 09:40:20;;;;;;;;;;;18.10;94.60;;;;;;5061373;28;19912;-48
2023/09/25 09:42:47;;;;;;;;;;;18.10;94.50;;;;;;5082118;28;20367;-48
2023/09/25 09:45:13;;;;;;;;;;;18.10;94.50;;;;;;5073775;28;19919;-50
2023/09/25 09:47:46;;;;;;;;;;;18.10;94.40;;;;;;5088113;28;19916;-51
2023/09/25 09:50:12;;;;;;;;;;;18.10;94.10;;;;;;5083154;28;19920;-49
2023/09/25 09:52:39;;;;;;;;;;;18.10;94.10;;;;;;5086372;28;20270;-48
2023/09/25 09:55:08;;;;;;;;;;;18.10;94.20;;;;;;5090088;28;19916;-50
2023/09/25 09:57:34;;;;;;;;;;;18.10;94.00;;;;;;5088512;28;19916;-49
2023/09/25 10:00:00;;;;;;;;;;;18.10;94.10;;;;;;5084707;28;19944;-47
2023/09/25 10:02:28;;;;;;;;;;;18.10;94.10;;;;;;5071244;28;19919;-48
2023/09/25 10:04:56;;;;;;;;;;;18.10;94.20;;;;;;5094263;28;19919;-48
2023/09/25 10:07:21;;;;;;;;;;;18.10;94.10;;;;;;5080376;28;19955;-48
2023/09/25 10:09:59;;;;;;;;;;;18.10;94.30;;;;;;5083007;28;19962;-48
2023/09/25 10:12:56;;;;;;;;;;;18.10;94.20;;;;;;5088338;28;19920;-49
2023/09/25 10:15:23;;;;;;;;;;;18.10;94.40;;;;;;5033041;28;19975;-49
2023/09/25 10:17:48;;;;;;;;;;;18.10;94.30;;;;;;5079245;28;20410;-50
2023/09/25 10:20:33;;;;;;;;;;;18.10;94.30;;;;;;5095462;28;19951;-50
2023/09/25 10:23:03;;;;;;;;;;;18.10;94.40;;;;;;5096672;28;19916;-51
2023/09/25 10:25:31;;;;;;;;;;;18.10;94.30;;;;;;5096762;28;20359;-50
2023/09/25 10:27:56;;;;;;;;;;;18.10;94.30;;;;;;5094195;28;19912;-49
2023/09/25 10:30:22;;;;;;;;;;;18.10;94.30;;;;;;5074139;28;20420;-52
2023/09/25 10:32:52;;;;;;;;;;;18.10;94.50;;;;;;5077416;28;19928;-49
2023/09/25 10:35:36;;;;;;;;;;;18.10;94.30;;;;;;5064616;28;19924;-52
2023/09/25 10:38:06;;;;;;;;;;;18.20;94.30;;;;;;5075346;28;19912;-52
2023/09/25 10:40:32;;;;;;;;;;;18.10;94.20;;;;;;5077853;28;20424;-48
2023/09/25 10:42:57;;;;;;;;;;;18.10;94.40;;;;;;5075859;28;19909;-46
2023/09/25 10:45:23;;;;;;;;;;;18.10;94.40;;;;;;5075832;28;19909;-47
2023/09/25 10:47:48;;;;;;;;;;;18.10;94.40;;;;;;5075079;28;19931;-49
2023/09/25 10:50:14;;;;;;;;;;;18.10;94.40;;;;;;5075798;28;19956;-50
2023/09/25 10:52:39;;;;;;;;;;;18.10;94.30;;;;;;5076050;28;19919;-46
2023/09/25 10:55:05;;;;;;;;;;;18.10;94.30;;;;;;5076048;28;19913;-48
2023/09/25 10:57:31;;;;;;;;;;;18.10;94.30;;;;;;5076223;28;20266;-48
2023/09/25 10:59:56;;;;;;;;;;;18.10;94.40;;;;;;5075566;28;19912;-46
2023/09/25 11:02:21;;;;;;;;;;;18.10;94.50;;;;;;5075623;28;20004;-45
2023/09/25 11:04:47;;;;;;;;;;;18.10;94.50;;;;;;5075512;28;20374;-47
2023/09/25 11:07:13;;;;;;;;;;;18.10;94.40;;;;;;5074977;28;19958;-49
2023/09/25 11:09:38;;;;;;;;;;;18.10;94.40;;;;;;5075646;28;19913;-47
2023/09/25 11:12:04;;;;;;;;;;;18.10;94.50;;;;;;5074538;28;19912;-49
2023/09/25 11:14:35;;;;;;;;;;;18.10;94.50;;;;;;5075304;28;19912;-50
2023/09/25 11:17:01;;;;;;;;;;;18.10;94.40;;;;;;5074838;28;19919;-49
2023/09/25 11:19:28;;;;;;;;;;;18.10;94.30;;;;;;5075570;28;19953;-49
2023/09/25 11:21:55;;;;;;;;;;;18.10;94.30;;;;;;5075275;28;19915;-49
2023/09/25 11:24:20;;;;;;;;;;;18.10;94.30;;;;;;5075472;28;19908;-51
2023/09/25 11:26:48;;;;;;;;;;;18.10;94.30;;;;;;5074630;28;20386;-49
2023/09/25 11:29:13;;;;;;;;;;;18.10;94.30;;;;;;5074972;28;19908;-49
2023/09/25 11:31:39;;;;;;;;;;;18.10;94.20;;;;;;5074819;28;20011;-49
2023/09/25 11:34:08;;;;;;;;;;;18.10;94.10;;;;;;5074997;28;19912;-51
2023/09/25 11:36:34;;;;;;;;;;;18.10;94.00;;;;;;5075036;28;19909;-48
2023/09/25 11:39:00;;;;;;;;;;;18.10;94.00;;;;;;5073794;28;19913;-47
2023/09/25 11:41:25;;;;;;;;;;;18.10;94.10;;;;;;5074755;28;19954;-49
2023/09/25 11:43:51;;;;;;;;;;;18.10;94.10;;;;;;5056686;28;20003;-49
2023/09/25 11:46:16;;;;;;;;;;;18.10;94.10;;;;;;5074793;28;19995;-48
2023/09/25 11:48:42;;;;;;;;;;;18.10;94.00;;;;;;5073090;28;19928;-50
2023/09/25 11:51:08;;;;;;;;;;;18.10;94.00;;;;;;5075015;28;19916;-46
2023/09/25 11:53:33;;;;;;;;;;;18.10;94.10;;;;;;5072595;28;19920;-49
2023/09/25 11:55:59;;;;;;;;;;;18.10;94.10;;;;;;5078162;28;20398;-50
2023/09/25 11:58:26;;;;;;;;;;;18.10;94.00;;;;;;5075181;28;19909;-50
2023/09/25 12:00:51;;;;;;;;;;;18.10;93.90;;;;;;5074587;28;20394;-51
2023/09/25 12:03:17;;;;;;;;;;;18.10;93.90;;;;;;5074755;28;19955;-49
2023/09/25 12:05:42;;;;;;;;;;;18.10;93.90;;;;;;5056104;28;19913;-50
2023/09/25 12:08:11;;;;;;;;;;;18.10;94.10;;;;;;5074533;28;20386;-49
2023/09/25 12:10:39;;;;;;;;;;;18.10;94.20;;;;;;5073990;28;19915;-49
2023/09/25 12:13:05;;;;;;;;;;;18.10;94.20;;;;;;5075690;28;19920;-46
2023/09/25 12:15:30;;;;;;;;;;;18.10;94.20;;;;;;5087913;28;20004;-53
2023/09/25 12:17:56;;;;;;;;;;;18.10;94.20;;;;;;5091391;28;19985;-51
2023/09/25 12:20:23;;;;;;;;;;;18.10;94.20;;;;;;5092951;28;19996;-49
2023/09/25 12:22:52;;;;;;;;;;;18.10;94.30;;;;;;5091981;28;19920;-49
2023/09/25 12:25:19;;;;;;;;;;;18.10;94.30;;;;;;5089615;28;19995;-46
2023/09/25 12:27:45;;;;;;;;;;;18.10;94.20;;;;;;5077941;28;20424;-47
2023/09/25 12:30:13;;;;;;;;;;;18.10;93.70;;;;;;5076292;28;19908;-49
2023/09/25 12:32:39;;;;;;;;;;;18.10;93.20;;;;;;5090063;28;20367;-48
2023/09/25 12:35:05;;;;;;;;;;;18.10;93.00;;;;;;5089132;28;19916;-47
2023/09/25 12:37:31;;;;;;;;;;;18.00;92.70;;;;;;5084953;28;19919;-54
2023/09/25 12:39:56;;;;;;;;;;;18.00;92.50;;;;;;5084849;28;19921;-48
2023/09/25 12:42:22;;;;;;;;;;;18.00;92.40;;;;;;5089694;28;19991;-49
2023/09/25 12:44:47;;;;;;;;;;;18.00;92.50;;;;;;5091454;28;19919;-48
2023/09/25 12:47:13;;;;;;;;;;;18.00;92.60;;;;;;5083933;28;20023;-49
2023/09/25 12:49:39;;;;;;;;;;;18.00;92.70;;;;;;5071750;28;19924;-48
2023/09/25 12:52:04;;;;;;;;;;;18.00;92.90;;;;;;5073924;28;19917;-52
2023/09/25 12:54:32;;;;;;;;;;;18.00;93.00;;;;;;5073272;28;20142;-48
2023/09/25 12:56:57;;;;;;;;;;;18.00;93.00;;;;;;5072562;28;19936;-50
2023/09/25 12:59:23;;;;;;;;;;;18.00;93.00;;;;;;5073873;28;19909;-48
2023/09/25 13:01:49;;;;;;;;;;;18.00;93.10;;;;;;5073574;28;19913;-50
2023/09/25 13:04:15;;;;;;;;;;;18.00;93.20;;;;;;5070698;28;19920;-50
2023/09/25 13:06:41;;;;;;;;;;;18.00;93.20;;;;;;5073451;28;20337;-50
2023/09/25 13:09:09;;;;;;;;;;;18.00;93.30;;;;;;5073239;28;19909;-48
2023/09/25 13:11:36;;;;;;;;;;;18.00;93.30;;;;;;5073427;28;19913;-47
2023/09/25 13:14:02;;;;;;;;;;;18.00;93.30;;;;;;5055747;28;19965;-50
2023/09/25 13:16:31;;;;;;;;;;;18.00;93.20;;;;;;5071373;28;19912;-49
2023/09/25 13:18:57;;;;;;;;;;;18.00;93.20;;;;;;5073522;28;20358;-49
2023/09/25 13:21:22;;;;;;;;;;;18.00;93.30;;;;;;5073583;28;20027;-50
2023/09/25 13:23:48;;;;;;;;;;;18.00;93.30;;;;;;5073308;28;19959;-49
2023/09/25 13:26:13;;;;;;;;;;;18.00;93.30;;;;;;5071016;28;19931;-52
2023/09/25 13:28:39;;;;;;;;;;;18.00;93.30;;;;;;5073055;28;19955;-48
2023/09/25 13:31:04;;;;;;;;;;;18.00;93.30;;;;;;5073300;28;19919;-49
2023/09/25 13:33:30;;;;;;;;;;;18.00;93.30;;;;;;5073645;28;20279;-50
2023/09/25 13:35:55;;;;;;;;;;;18.00;93.40;;;;;;5056838;28;19909;-46
2023/09/25 13:38:21;;;;;;;;;;;18.00;93.30;;;;;;5077229;28;19909;-48
2023/09/25 13:40:46;;;;;;;;;;;18.00;93.30;;;;;;5077430;28;19919;-48
2023/09/25 13:43:12;;;;;;;;;;;18.00;93.30;;;;;;5077822;28;19956;-47
2023/09/25 13:45:38;;;;;;;;;;;18.00;93.30;;;;;;5077322;28;20394;-50
2023/09/25 13:48:04;;;;;;;;;;;18.00;93.30;;;;;;5076815;28;19913;-49
2023/09/25 13:50:29;;;;;;;;;;;18.00;93.30;;;;;;5076758;28;19928;-48
2023/09/25 13:52:55;;;;;;;;;;;18.00;93.30;;;;;;5076914;28;20364;-46
2023/09/25 13:55:20;;;;;;;;;;;18.00;93.30;;;;;;5059184;28;20008;-49
2023/09/25 13:57:46;;;;;;;;;;;18.00;93.40;;;;;;5075716;28;19909;-50
2023/09/25 14:00:12;;;;;;;;;;;18.00;93.30;;;;;;5059055;28;19917;-47
2023/09/25 14:02:38;;;;;;;;;;;18.00;93.30;;;;;;5076731;28;19908;-51
2023/09/25 14:05:04;;;;;;;;;;;18.00;93.40;;;;;;5077068;28;19956;-49
2023/09/25 14:07:30;;;;;;;;;;;18.00;93.30;;;;;;5075811;28;20260;-49
2023/09/25 14:09:55;;;;;;;;;;;18.00;93.30;;;;;;5076507;28;19955;-51
2023/09/25 14:12:21;;;;;;;;;;;18.00;93.30;;;;;;5076287;28;19919;-47